createdAt,value
2023-03-15T00:03:37.287Z,100
2023-03-15T00:09:10.843Z,100
2023-03-15T00:15:00.393Z,100
2023-03-15T00:20:25.209Z,100
2023-03-15T00:25:54.568Z,100
2023-03-15T00:31:37.569Z,100
2023-03-15T00:37:09.862Z,100
2023-03-15T00:42:56.932Z,100
2023-03-15T00:48:04.458Z,100
2023-03-15T00:54:01.609Z,100
2023-03-15T00:59:34.439Z,100
2023-03-15T01:04:49.224Z,100
2023-03-15T01:10:45.372Z,100
2023-03-15T01:16:05.571Z,100
2023-03-15T01:21:35.762Z,100
2023-03-15T01:27:20.548Z,100
2023-03-15T01:32:35.535Z,100
2023-03-15T01:38:25.983Z,100
2023-03-15T01:43:45.157Z,100
2023-03-15T01:49:34.125Z,100
2023-03-15T01:54:45.551Z,100
2023-03-15T02:00:20.927Z,100
2023-03-15T02:06:12.321Z,100
2023-03-15T02:11:43.853Z,100
2023-03-15T02:17:09.613Z,100
2023-03-15T02:22:31.502Z,100
2023-03-15T02:28:04.215Z,100
2023-03-15T02:33:43.538Z,100
2023-03-15T02:39:15.859Z,100
2023-03-15T02:44:46.972Z,100
2023-03-15T02:50:25.015Z,100
2023-03-15T02:55:51.249Z,100
2023-03-15T03:01:23.031Z,100
2023-03-15T03:07:06.729Z,100
2023-03-15T03:12:21.437Z,100
2023-03-15T03:18:10.440Z,100
2023-03-15T03:23:32.211Z,100
2023-03-15T03:29:17.073Z,100
2023-03-15T03:34:34.297Z,100
2023-03-15T03:40:06.706Z,100
2023-03-15T03:45:53.926Z,100
2023-03-15T03:51:34.152Z,100
2023-03-15T03:57:03.756Z,100
2023-03-15T04:02:40.297Z,100
2023-03-15T04:07:48.807Z,100
2023-03-15T04:13:29.812Z,100
2023-03-15T04:18:56.021Z,100
2023-03-15T04:24:29.599Z,100
2023-03-15T04:30:15.370Z,100
2023-03-15T04:35:48.449Z,100
2023-03-15T04:41:26.987Z,100
2023-03-15T04:46:48.647Z,100
2023-03-15T04:52:26.779Z,100
2023-03-15T04:57:46.114Z,100
2023-03-15T05:03:32.021Z,100
2023-03-15T05:08:53.512Z,100
2023-03-15T05:14:36.882Z,100
2023-03-15T05:19:57.991Z,100
2023-03-15T05:25:33.244Z,100
2023-03-15T05:31:04.524Z,100
2023-03-15T05:36:30.073Z,100
2023-03-15T05:42:04.508Z,100
2023-03-15T05:47:52.562Z,100
2023-03-15T05:53:27.436Z,100
2023-03-15T05:59:04.156Z,100
2023-03-15T06:04:27.803Z,100
2023-03-15T06:10:07.429Z,100
2023-03-15T06:15:46.930Z,100
2023-03-15T06:21:18.452Z,100
2023-03-15T06:26:31.758Z,100
2023-03-15T06:32:00.191Z,100
2023-03-15T06:37:35.824Z,100
2023-03-15T06:43:19.248Z,100
2023-03-15T06:48:49.084Z,100
2023-03-15T06:54:25.435Z,100
2023-03-15T07:00:01.869Z,100
2023-03-15T07:05:13.741Z,100
2023-03-15T07:11:00.233Z,100
2023-03-15T07:16:19.997Z,100
2023-03-15T07:21:54.387Z,100
2023-03-15T07:27:26.580Z,100
2023-03-15T07:32:57.049Z,100
2023-03-15T07:38:33.995Z,100
2023-03-15T07:44:21.286Z,100
2023-03-15T07:49:55.015Z,100
2023-03-15T07:55:30.355Z,100
2023-03-15T08:00:46.421Z,100
2023-03-15T08:06:22.285Z,100
2023-03-15T08:11:58.009Z,100
2023-03-15T08:17:35.191Z,100
2023-03-15T08:23:02.086Z,100
2023-03-15T08:28:38.529Z,100
2023-03-15T08:34:11.141Z,100
2023-03-15T08:39:48.638Z,100
2023-03-15T08:45:29.060Z,100
2023-03-15T08:51:02.759Z,100
2023-03-15T08:56:28.140Z,100
2023-03-15T09:01:58.288Z,100
2023-03-15T09:07:39.254Z,100
2023-03-15T09:13:19.844Z,100
2023-03-15T09:18:49.575Z,100
2023-03-15T09:24:43.644Z,100
2023-03-15T09:29:57.938Z,100
2023-03-15T09:35:51.733Z,100
2023-03-15T09:41:07.904Z,100
2023-03-15T09:46:58.116Z,100
2023-03-15T09:52:40.706Z,100
2023-03-15T09:57:53.331Z,100
2023-03-15T10:03:25.705Z,100
2023-03-15T10:09:02.305Z,100
2023-03-15T10:14:43.850Z,100
2023-03-15T10:20:21.385Z,100
2023-03-15T10:25:58.630Z,100
2023-03-15T10:31:22.449Z,100
2023-03-15T10:37:14.350Z,100
2023-03-15T10:42:55.614Z,100
2023-03-15T10:48:31.171Z,100
2023-03-15T10:54:09.542Z,100
2023-03-15T10:59:42.380Z,100
2023-03-15T11:05:06.688Z,100
2023-03-15T11:10:42.712Z,100
2023-03-15T11:16:21.940Z,100
2023-03-15T11:22:07.973Z,100
2023-03-15T11:27:42.038Z,100
2023-03-15T11:33:17.875Z,100
2023-03-15T11:38:37.168Z,100
2023-03-15T11:44:33.904Z,100
2023-03-15T11:49:46.965Z,99
2023-03-15T11:55:26.875Z,100
2023-03-15T12:01:05.859Z,100
2023-03-15T12:06:36.070Z,95
2023-03-15T12:12:33.951Z,99
2023-03-15T12:17:50.918Z,96
2023-03-15T12:23:25.895Z,96
2023-03-15T12:29:22.742Z,93
2023-03-15T12:34:57.803Z,91
2023-03-15T12:40:27.459Z,92
2023-03-15T12:45:45.688Z,94
2023-03-15T12:51:33.979Z,91
2023-03-15T12:57:13.326Z,93
2023-03-15T13:02:56.543Z,98
2023-03-15T13:08:30.522Z,98
2023-03-15T13:13:52.015Z,100
2023-03-15T13:19:35.315Z,95
2023-03-15T13:25:02.444Z,91
2023-03-15T13:31:00.918Z,93
2023-03-15T13:36:31.833Z,87
2023-03-15T13:42:14.256Z,93
2023-03-15T13:47:30.534Z,94
2023-03-15T13:53:03.619Z,90
2023-03-15T13:58:55.947Z,93
2023-03-15T14:04:24.752Z,84
2023-03-15T14:10:07.184Z,89
2023-03-15T14:15:42.737Z,82
2023-03-15T14:21:04.396Z,75
2023-03-15T14:27:00.972Z,78
2023-03-15T14:32:21.233Z,72
2023-03-15T14:38:01.365Z,69
2023-03-15T14:43:41.730Z,65
2023-03-15T14:49:10.137Z,63
2023-03-15T14:55:01.642Z,58
2023-03-15T15:00:22.894Z,70
2023-03-15T15:06:11.065Z,62
2023-03-15T15:11:35.049Z,56
2023-03-15T15:17:21.797Z,56
2023-03-15T15:23:00.671Z,55
2023-03-15T15:28:35.663Z,73
2023-03-15T15:34:02.343Z,83
2023-03-15T15:39:46.246Z,90
2023-03-15T15:51:14.744Z,85
2023-03-15T15:56:34.508Z,89
2023-03-15T16:02:10.423Z,93
2023-03-15T16:08:04.317Z,100
2023-03-15T16:13:19.778Z,93
2023-03-15T16:18:48.887Z,98
2023-03-15T16:24:52.342Z,91
2023-03-15T16:30:26.614Z,88
2023-03-15T16:35:58.983Z,95
2023-03-15T16:41:07.853Z,99
2023-03-15T16:46:53.938Z,100
2023-03-15T16:52:33.782Z,100
2023-03-15T16:58:09.331Z,100
2023-03-15T17:03:44.072Z,100
2023-03-15T17:09:20.084Z,100
2023-03-15T17:15:03.376Z,100
2023-03-15T17:20:25.572Z,100
2023-03-15T17:26:06.294Z,100
2023-03-15T17:31:32.419Z,100
2023-03-15T17:36:57.309Z,100
2023-03-15T17:42:52.501Z,100
2023-03-15T17:48:25.379Z,100
2023-03-15T17:53:42.874Z,100
2023-03-15T17:59:14.702Z,100
2023-03-15T18:05:08.075Z,100
2023-03-15T18:10:17.901Z,100
2023-03-15T18:16:05.876Z,100
2023-03-15T18:21:36.118Z,100
2023-03-15T18:27:01.078Z,100
2023-03-15T18:32:46.077Z,100
2023-03-15T18:38:07.432Z,100
2023-03-15T18:43:45.500Z,100
2023-03-15T18:49:19.395Z,100
2023-03-15T18:55:08.540Z,100
2023-03-15T19:00:48.780Z,100
2023-03-15T19:06:10.833Z,100
2023-03-15T19:11:33.799Z,100
2023-03-15T19:17:15.407Z,100
2023-03-15T19:23:00.382Z,100
2023-03-15T19:28:28.778Z,100
2023-03-15T19:33:57.393Z,100
2023-03-15T19:39:23.295Z,100
2023-03-15T19:45:13.278Z,100
2023-03-15T19:50:22.611Z,100
2023-03-15T19:56:13.354Z,100
2023-03-15T20:01:54.468Z,100
2023-03-15T20:07:23.044Z,100
2023-03-15T20:12:58.576Z,100
2023-03-15T20:18:16.042Z,100
2023-03-15T20:23:56.373Z,100
2023-03-15T20:29:34.047Z,100
2023-03-15T20:35:08.299Z,100
2023-03-15T20:40:43.208Z,100
2023-03-15T20:46:03.632Z,100
2023-03-15T20:51:42.898Z,100
2023-03-15T20:57:20.457Z,100
2023-03-15T21:02:46.662Z,100
2023-03-15T21:08:31.021Z,100
2023-03-15T21:13:58.438Z,100
2023-03-15T21:19:33.325Z,100
2023-03-15T21:25:06.796Z,100
2023-03-15T21:30:16.973Z,100
2023-03-15T21:36:13.114Z,100
2023-03-15T21:41:40.072Z,100
2023-03-15T21:47:07.661Z,100
2023-03-15T21:52:38.127Z,100
2023-03-15T21:58:12.982Z,100
2023-03-15T22:03:57.674Z,100
2023-03-15T22:09:21.072Z,100
2023-03-15T22:14:44.727Z,100
2023-03-15T22:20:35.318Z,100
2023-03-15T22:25:54.235Z,100
2023-03-15T22:31:25.766Z,100
2023-03-15T22:37:12.792Z,100
2023-03-15T22:42:44.575Z,100
2023-03-15T22:47:57.129Z,100
2023-03-15T22:53:50.420Z,100
2023-03-15T22:59:13.931Z,100
2023-03-15T23:05:02.302Z,100
2023-03-15T23:10:36.132Z,100
2023-03-15T23:16:06.923Z,100
2023-03-15T23:21:28.702Z,100
2023-03-15T23:26:50.766Z,100
2023-03-15T23:32:42.618Z,100
2023-03-15T23:38:04.159Z,100
2023-03-15T23:43:45.752Z,100
2023-03-15T23:49:00.822Z,100
2023-03-15T23:54:49.019Z,100
